createdAt,value
2018-01-23T00:01:19.687Z,34.20
2018-01-23T00:03:48.213Z,37.27
2018-01-23T00:06:15.801Z,36.33
2018-01-23T00:08:44.521Z,44.33
2018-01-23T00:11:14.623Z,47.43
2018-01-23T00:13:43.662Z,45.80
2018-01-23T00:16:11.210Z,40.87
2018-01-23T00:18:41.285Z,37.00
2018-01-23T00:21:10.889Z,35.07
2018-01-23T00:23:42.112Z,33.37
2018-01-23T00:26:12.585Z,41.77
2018-01-23T00:28:42.209Z,38.70
2018-01-23T00:31:09.777Z,42.43
2018-01-23T00:33:37.317Z,37.80
2018-01-23T00:36:05.583Z,45.37
2018-01-23T00:38:33.925Z,38.43
2018-01-23T00:41:03.328Z,45.07
2018-01-23T00:43:31.012Z,37.77
2018-01-23T00:46:02.406Z,40.20
2018-01-23T00:48:30.064Z,42.30
2018-01-23T00:50:58.009Z,37.10
2018-01-23T00:53:27.236Z,38.07
2018-01-23T00:55:54.752Z,36.93
2018-01-23T00:58:22.274Z,39.97
2018-01-23T01:00:50.929Z,44.33
2018-01-23T01:03:20.225Z,44.93
2018-01-23T01:05:48.628Z,40.73
2018-01-23T01:08:16.140Z,38.80
2018-01-23T01:10:43.660Z,40.03
2018-01-23T01:13:12.095Z,45.50
2018-01-23T01:15:42.372Z,36.10
2018-01-23T01:18:11.709Z,39.33
2018-01-23T01:20:40.010Z,43.87
2018-01-23T01:23:09.598Z,41.30
2018-01-23T01:25:40.845Z,41.03
2018-01-23T01:28:09.070Z,43.80
2018-01-23T01:30:37.949Z,42.90
2018-01-23T01:33:05.444Z,42.90
2018-01-23T01:35:37.230Z,41.83
2018-01-23T01:38:08.321Z,51.97
2018-01-23T01:40:35.979Z,42.13
2018-01-23T01:43:04.386Z,45.30
2018-01-23T01:45:33.397Z,40.13
2018-01-23T01:48:02.052Z,46.23
2018-01-23T01:50:30.665Z,51.93
2018-01-23T01:52:58.167Z,50.43
2018-01-23T01:55:27.085Z,46.10
2018-01-23T01:57:55.216Z,48.07
2018-01-23T02:00:27.755Z,54.50
2018-01-23T02:02:55.889Z,56.20
2018-01-23T02:05:23.418Z,47.97
2018-01-23T02:07:56.878Z,52.60
2018-01-23T02:10:28.297Z,49.90
2018-01-23T02:12:56.503Z,54.23
2018-01-23T02:15:25.453Z,55.60
2018-01-23T02:17:56.109Z,60.13
2018-01-23T02:20:30.256Z,53.50
2018-01-23T02:23:00.549Z,58.00
2018-01-23T02:25:30.270Z,53.33
2018-01-23T02:27:59.645Z,58.83
2018-01-23T02:30:27.934Z,55.03
2018-01-23T02:35:31.645Z,55.50
2018-01-23T02:37:59.147Z,60.43
2018-01-23T02:40:27.304Z,51.03
2018-01-23T02:42:59.060Z,51.53
2018-01-23T02:45:27.122Z,51.17
2018-01-23T02:47:57.360Z,61.27
2018-01-23T02:50:26.805Z,53.00
2018-01-23T02:52:54.309Z,66.43
2018-01-23T02:55:23.080Z,59.30
2018-01-23T02:57:50.600Z,56.80
2018-01-23T03:00:18.894Z,71.60
2018-01-23T03:02:46.521Z,71.03
2018-01-23T03:05:14.114Z,56.80
2018-01-23T03:07:41.609Z,68.70
2018-01-23T03:10:09.146Z,75.43
2018-01-23T03:12:36.748Z,72.13
2018-01-23T03:15:04.325Z,72.97
2018-01-23T03:17:32.621Z,72.40
2018-01-23T03:20:00.151Z,70.10
2018-01-23T03:22:27.673Z,66.90
2018-01-23T03:24:55.236Z,67.73
2018-01-23T03:27:22.897Z,66.83
2018-01-23T03:29:50.468Z,66.30
2018-01-23T03:32:17.982Z,70.53
2018-01-23T03:34:45.511Z,70.53
2018-01-23T03:37:13.021Z,66.07
2018-01-23T03:39:41.792Z,69.77
2018-01-23T03:42:09.288Z,69.37
2018-01-23T03:44:37.556Z,71.20
2018-01-23T03:47:05.089Z,64.20
2018-01-23T03:49:33.356Z,61.77
2018-01-23T03:52:00.898Z,64.40
2018-01-23T03:54:28.375Z,66.60
2018-01-23T03:56:57.077Z,80.87
2018-01-23T03:59:24.606Z,73.07
2018-01-23T04:01:52.871Z,70.63
2018-01-23T04:04:24.970Z,71.30
2018-01-23T04:06:52.548Z,60.77
2018-01-23T04:09:20.101Z,74.87
2018-01-23T04:11:49.177Z,65.30
2018-01-23T04:14:17.620Z,65.47
2018-01-23T04:16:46.282Z,69.47
2018-01-23T04:19:14.573Z,66.50
2018-01-23T04:21:43.725Z,74.60
2018-01-23T04:24:11.240Z,76.07
2018-01-23T04:26:40.050Z,58.00
2018-01-23T04:29:12.018Z,65.10
2018-01-23T04:31:44.654Z,70.60
2018-01-23T04:34:12.218Z,72.40
2018-01-23T04:36:40.488Z,67.40
2018-01-23T04:39:11.536Z,72.70
2018-01-23T04:41:39.697Z,70.37
2018-01-23T04:44:08.694Z,64.37
2018-01-23T04:46:39.020Z,73.53
2018-01-23T04:49:06.516Z,59.80
2018-01-23T04:51:34.144Z,68.10
2018-01-23T04:54:01.689Z,58.47
2018-01-23T04:56:29.993Z,65.73
2018-01-23T04:58:57.500Z,56.30
2018-01-23T05:01:25.016Z,70.43
2018-01-23T05:03:53.334Z,66.83
2018-01-23T05:06:21.937Z,60.57
2018-01-23T05:08:49.504Z,58.43
2018-01-23T05:11:16.997Z,60.70
2018-01-23T05:13:45.756Z,59.30
2018-01-23T05:16:14.787Z,67.00
2018-01-23T05:18:42.321Z,57.80
2018-01-23T05:21:11.746Z,58.33
2018-01-23T05:23:41.207Z,62.07
2018-01-23T05:26:08.700Z,64.97
2018-01-23T05:28:46.606Z,57.43
2018-01-23T05:31:14.125Z,57.47
2018-01-23T05:33:42.370Z,53.53
2018-01-23T05:36:11.329Z,61.57
2018-01-23T05:38:40.161Z,64.80
2018-01-23T05:41:07.685Z,60.20
2018-01-23T05:43:35.362Z,65.33
2018-01-23T05:46:02.852Z,54.07
2018-01-23T05:48:31.422Z,60.20
2018-01-23T05:50:59.705Z,57.10
2018-01-23T05:53:28.088Z,67.60
2018-01-23T05:55:56.365Z,54.73
2018-01-23T05:58:24.682Z,64.40
2018-01-23T06:00:52.261Z,61.50
2018-01-23T06:03:19.781Z,54.43
2018-01-23T06:05:47.299Z,48.97
2018-01-23T06:08:14.829Z,53.20
2018-01-23T06:10:42.342Z,61.83
2018-01-23T06:13:09.880Z,58.77
2018-01-23T06:15:37.422Z,57.30
2018-01-23T06:18:05.154Z,51.27
2018-01-23T06:20:33.428Z,56.60
2018-01-23T06:23:02.200Z,53.80
2018-01-23T06:25:29.762Z,59.87
2018-01-23T06:27:57.309Z,52.60
2018-01-23T06:30:25.214Z,56.37
2018-01-23T06:32:52.728Z,53.47
2018-01-23T06:35:21.757Z,60.07
2018-01-23T06:37:49.264Z,58.03
2018-01-23T06:40:17.670Z,63.83
2018-01-23T06:42:45.195Z,50.90
2018-01-23T06:45:12.714Z,66.10
2018-01-23T06:47:40.224Z,66.20
2018-01-23T06:50:07.831Z,70.77
2018-01-23T06:52:35.405Z,60.97
2018-01-23T06:55:02.900Z,60.20
2018-01-23T06:57:30.496Z,59.07
2018-01-23T06:59:58.029Z,54.40
2018-01-23T07:02:25.567Z,52.93
2018-01-23T07:04:53.090Z,57.47
2018-01-23T07:07:21.397Z,53.10
2018-01-23T07:09:49.662Z,61.43
2018-01-23T07:12:17.189Z,65.43
2018-01-23T07:14:44.692Z,52.33
2018-01-23T07:17:12.237Z,65.03
2018-01-23T07:19:39.778Z,59.30
2018-01-23T07:22:07.341Z,60.87
2018-01-23T07:24:34.838Z,55.97
2018-01-23T07:27:02.398Z,52.80
2018-01-23T07:29:30.164Z,60.50
2018-01-23T07:31:57.777Z,56.70
2018-01-23T07:34:25.266Z,54.23
2018-01-23T07:36:52.957Z,51.00
2018-01-23T07:39:21.225Z,48.47
2018-01-23T07:41:48.750Z,47.00
2018-01-23T07:44:16.249Z,39.63
2018-01-23T07:46:43.842Z,55.70
2018-01-23T07:49:11.370Z,47.63
2018-01-23T07:51:38.909Z,51.53
2018-01-23T07:54:07.179Z,54.77
2018-01-23T07:56:34.741Z,39.50
2018-01-23T07:59:02.282Z,45.83
2018-01-23T08:01:29.810Z,44.63
2018-01-23T08:03:58.226Z,43.50
2018-01-23T08:06:25.918Z,43.30
2018-01-23T08:08:53.460Z,49.73
2018-01-23T08:11:20.981Z,46.37
2018-01-23T08:13:48.481Z,54.83
2018-01-23T08:16:16.793Z,53.03
2018-01-23T08:18:44.293Z,55.57
2018-01-23T08:21:11.834Z,59.73
2018-01-23T08:23:39.333Z,49.20
2018-01-23T08:26:06.843Z,52.10
2018-01-23T08:28:34.445Z,59.10
2018-01-23T08:31:01.975Z,50.87
2018-01-23T08:33:29.513Z,50.30
2018-01-23T08:35:57.431Z,39.43
2018-01-23T08:38:24.950Z,55.50
2018-01-23T08:40:52.469Z,49.00
2018-01-23T08:43:20.777Z,44.93
2018-01-23T08:45:49.036Z,47.20
2018-01-23T08:48:17.362Z,48.50
2018-01-23T08:50:45.628Z,42.90
2018-01-23T08:53:13.215Z,42.50
2018-01-23T08:55:41.485Z,39.70
2018-01-23T08:58:09.231Z,44.53
2018-01-23T09:00:36.752Z,43.87
2018-01-23T09:05:39.041Z,44.63
2018-01-23T09:08:06.599Z,47.70
2018-01-23T09:10:34.959Z,42.90
2018-01-23T09:13:02.453Z,44.47
2018-01-23T09:15:30.013Z,49.40
2018-01-23T09:17:57.704Z,48.20
2018-01-23T09:20:25.673Z,48.40
2018-01-23T09:22:53.172Z,50.00
2018-01-23T09:25:20.696Z,53.43
2018-01-23T09:27:48.220Z,52.53
2018-01-23T09:30:16.544Z,49.83
2018-01-23T09:32:44.057Z,58.13
2018-01-23T09:35:11.580Z,70.27
2018-01-23T09:37:39.115Z,68.00
2018-01-23T09:40:06.658Z,79.43
2018-01-23T09:42:34.218Z,78.53
2018-01-23T09:45:01.970Z,64.73
2018-01-23T09:47:29.606Z,74.47
2018-01-23T09:49:57.251Z,78.00
2018-01-23T09:52:24.779Z,58.40
2018-01-23T09:54:53.044Z,72.97
2018-01-23T09:57:20.563Z,72.00
2018-01-23T09:59:48.106Z,78.43
2018-01-23T10:02:16.378Z,66.80
2018-01-23T10:04:44.753Z,69.20
2018-01-23T10:07:13.035Z,66.97
2018-01-23T10:09:40.586Z,65.57
2018-01-23T10:12:08.224Z,77.83
2018-01-23T10:14:35.811Z,60.03
2018-01-23T10:17:03.374Z,64.30
2018-01-23T10:19:30.928Z,67.63
2018-01-23T10:21:59.232Z,69.50
2018-01-23T10:24:26.774Z,66.77
2018-01-23T10:26:55.032Z,88.83
2018-01-23T10:29:22.578Z,82.37
2018-01-23T10:31:50.239Z,70.43
2018-01-23T10:34:17.773Z,71.40
2018-01-23T10:36:45.386Z,75.67
2018-01-23T10:39:12.939Z,67.77
2018-01-23T10:41:41.194Z,72.80
2018-01-23T10:44:08.729Z,64.80
2018-01-23T10:46:37.004Z,67.67
2018-01-23T10:49:04.564Z,62.30
2018-01-23T10:51:32.127Z,71.33
2018-01-23T10:54:00.405Z,57.73
2018-01-23T10:56:28.703Z,63.53
2018-01-23T10:58:57.009Z,64.23
2018-01-23T11:01:30.309Z,60.30
2018-01-23T11:03:57.834Z,69.83
2018-01-23T11:06:25.373Z,60.00
2018-01-23T11:08:52.923Z,56.70
2018-01-23T11:11:20.485Z,58.43
2018-01-23T11:13:48.937Z,52.00
2018-01-23T11:16:16.721Z,53.17
2018-01-23T11:18:44.243Z,51.40
2018-01-23T11:21:11.826Z,53.87
2018-01-23T11:23:39.386Z,50.90
2018-01-23T11:26:06.900Z,53.43
2018-01-23T11:28:34.540Z,52.93
2018-01-23T11:31:02.092Z,55.70
2018-01-23T11:33:29.661Z,48.50
2018-01-23T11:35:57.206Z,49.93
2018-01-23T11:38:24.712Z,49.27
2018-01-23T11:40:52.216Z,51.67
2018-01-23T11:43:19.884Z,52.50
2018-01-23T11:45:47.480Z,46.97
2018-01-23T11:48:15.046Z,52.97
2018-01-23T11:50:42.889Z,46.50
2018-01-23T11:53:10.406Z,47.63
2018-01-23T11:55:38.066Z,57.13
2018-01-23T11:58:05.606Z,49.53
2018-01-23T12:00:33.212Z,59.40
2018-01-23T12:03:00.840Z,59.20
2018-01-23T12:05:29.226Z,57.67
2018-01-23T12:07:56.831Z,61.00
2018-01-23T12:10:25.061Z,53.93
2018-01-23T12:12:53.320Z,58.80
2018-01-23T12:15:20.905Z,66.37
2018-01-23T12:17:48.505Z,64.40
2018-01-23T12:20:16.843Z,58.87
2018-01-23T12:22:44.362Z,62.10
2018-01-23T12:25:12.767Z,61.87
2018-01-23T12:27:40.275Z,58.23
2018-01-23T12:30:07.797Z,55.07
2018-01-23T12:32:35.313Z,58.13
2018-01-23T12:35:02.962Z,63.83
2018-01-23T12:37:30.508Z,55.27
2018-01-23T12:39:58.793Z,53.00
2018-01-23T12:42:27.074Z,55.47
2018-01-23T12:44:55.377Z,48.00
2018-01-23T12:47:23.625Z,48.57
2018-01-23T12:49:51.153Z,49.57
2018-01-23T12:52:18.675Z,52.90
2018-01-23T12:54:46.184Z,48.80
2018-01-23T12:57:14.602Z,49.03
2018-01-23T12:59:42.228Z,46.17
2018-01-23T13:02:09.833Z,53.60
2018-01-23T13:04:38.047Z,54.00
2018-01-23T13:07:05.593Z,52.43
2018-01-23T13:09:33.220Z,46.10
2018-01-23T13:12:00.928Z,48.37
2018-01-23T13:14:28.439Z,49.83
2018-01-23T13:16:56.045Z,50.07
2018-01-23T13:19:23.567Z,53.67
2018-01-23T13:21:51.199Z,52.73
2018-01-23T13:24:19.495Z,57.83
2018-01-23T13:26:47.765Z,51.73
2018-01-23T13:29:15.429Z,43.60
2018-01-23T13:31:42.958Z,46.20
2018-01-23T13:34:10.455Z,48.43
2018-01-23T13:36:38.072Z,50.53
2018-01-23T13:39:06.347Z,47.30
2018-01-23T13:41:34.753Z,53.67
2018-01-23T13:44:02.277Z,44.43
2018-01-23T13:46:30.061Z,43.40
2018-01-23T13:48:57.556Z,54.03
2018-01-23T13:51:25.848Z,47.13
2018-01-23T13:53:54.135Z,46.60
2018-01-23T13:56:22.439Z,48.40
2018-01-23T13:58:50.799Z,48.47
2018-01-23T14:01:19.072Z,55.90
2018-01-23T14:03:46.575Z,45.70
2018-01-23T14:06:14.166Z,52.17
2018-01-23T14:08:41.735Z,52.27
2018-01-23T14:11:09.325Z,40.30
2018-01-23T14:13:36.836Z,59.70
2018-01-23T14:16:05.139Z,49.40
2018-01-23T14:18:33.465Z,55.23
2018-01-23T14:21:01.110Z,52.97
2018-01-23T14:23:29.399Z,51.90
2018-01-23T14:25:58.602Z,53.20
2018-01-23T14:28:26.898Z,55.00
2018-01-23T14:30:55.202Z,47.37
2018-01-23T14:33:22.753Z,47.80
2018-01-23T14:35:50.502Z,50.20
2018-01-23T14:38:18.022Z,54.23
2018-01-23T14:40:45.877Z,49.30
2018-01-23T14:43:14.161Z,49.80
2018-01-23T14:45:42.462Z,63.03
2018-01-23T14:48:10.725Z,46.77
2018-01-23T14:50:38.321Z,56.70
2018-01-23T14:53:06.611Z,51.97
2018-01-23T14:55:35.047Z,51.10
2018-01-23T14:58:02.552Z,55.37
2018-01-23T15:00:30.882Z,45.57
2018-01-23T15:02:59.026Z,49.33
2018-01-23T15:05:26.555Z,47.60
2018-01-23T15:07:54.061Z,48.27
2018-01-23T15:10:21.598Z,43.83
2018-01-23T15:12:49.161Z,47.13
2018-01-23T15:15:17.134Z,45.97
2018-01-23T15:17:44.661Z,48.77
2018-01-23T15:20:12.273Z,51.30
2018-01-23T15:22:39.783Z,47.90
2018-01-23T15:25:07.301Z,43.47
2018-01-23T15:27:35.702Z,50.37
2018-01-23T15:30:03.250Z,54.50
2018-01-23T15:32:31.557Z,50.27
2018-01-23T15:34:59.164Z,49.83
2018-01-23T15:37:26.695Z,48.83
2018-01-23T15:39:54.995Z,49.97
2018-01-23T15:42:22.493Z,53.80
2018-01-23T15:44:50.193Z,48.57
2018-01-23T15:47:17.732Z,56.17
2018-01-23T15:49:45.282Z,49.90
2018-01-23T15:52:12.810Z,55.90
2018-01-23T15:54:40.442Z,57.70
2018-01-23T15:57:07.949Z,57.23
2018-01-23T15:59:35.587Z,43.60
2018-01-23T16:02:03.120Z,50.03
2018-01-23T16:04:30.703Z,46.80
2018-01-23T16:06:58.344Z,50.27
2018-01-23T16:09:26.026Z,45.53
2018-01-23T16:11:53.538Z,52.87
2018-01-23T16:14:21.101Z,49.57
2018-01-23T16:16:48.672Z,58.20
2018-01-23T16:19:16.237Z,54.30
2018-01-23T16:21:43.876Z,52.17
2018-01-23T16:24:12.218Z,60.07
2018-01-23T16:26:39.731Z,56.00
2018-01-23T16:29:07.294Z,53.37
2018-01-23T16:31:34.815Z,54.07
2018-01-23T16:34:02.369Z,60.20
2018-01-23T16:36:30.633Z,59.63
2018-01-23T16:38:58.957Z,57.83
2018-01-23T16:41:26.474Z,59.57
2018-01-23T16:43:53.998Z,51.43
2018-01-23T16:46:22.713Z,61.53
2018-01-23T16:48:50.321Z,67.10
2018-01-23T16:51:17.981Z,53.20
2018-01-23T16:53:45.529Z,52.10
2018-01-23T16:56:13.049Z,48.63
2018-01-23T16:58:40.715Z,56.80
2018-01-23T17:01:08.798Z,52.10
2018-01-23T17:03:36.545Z,56.10
2018-01-23T17:06:04.081Z,52.80
2018-01-23T17:08:32.378Z,49.57
2018-01-23T17:11:00.084Z,56.93
2018-01-23T17:13:27.626Z,54.97
2018-01-23T17:15:55.346Z,52.00
2018-01-23T17:18:22.869Z,52.83
2018-01-23T17:20:50.662Z,52.87
2018-01-23T17:23:18.201Z,66.47
2018-01-23T17:25:45.746Z,50.73
2018-01-23T17:28:13.324Z,59.13
2018-01-23T17:30:40.876Z,50.63
2018-01-23T17:33:08.467Z,49.43
2018-01-23T17:35:36.009Z,62.60
2018-01-23T17:38:03.517Z,58.70
2018-01-23T17:40:31.059Z,53.03
2018-01-23T17:42:58.612Z,52.30
2018-01-23T17:45:26.534Z,67.23
2018-01-23T17:47:54.979Z,56.13
2018-01-23T17:50:22.527Z,51.60
2018-01-23T17:52:50.829Z,50.33
2018-01-23T17:55:18.416Z,49.27
2018-01-23T17:57:46.076Z,52.40
2018-01-23T18:00:14.003Z,50.10
2018-01-23T18:02:41.618Z,57.77
2018-01-23T18:05:09.934Z,53.77
2018-01-23T18:07:37.617Z,51.67
2018-01-23T18:10:05.165Z,51.27
2018-01-23T18:12:32.848Z,47.77
2018-01-23T18:15:00.377Z,50.63
2018-01-23T18:17:28.000Z,42.90
2018-01-23T18:19:55.526Z,56.63
2018-01-23T18:22:23.249Z,44.00
2018-01-23T18:24:50.766Z,44.73
2018-01-23T18:27:18.376Z,55.20
2018-01-23T18:29:46.052Z,47.63
2018-01-23T18:32:13.683Z,48.53
2018-01-23T18:34:41.297Z,54.40
2018-01-23T18:37:09.134Z,46.40
2018-01-23T18:39:36.699Z,39.63
2018-01-23T18:42:04.241Z,41.50
2018-01-23T18:44:31.902Z,45.30
2018-01-23T18:46:59.514Z,46.10
2018-01-23T18:49:27.068Z,38.57
2018-01-23T18:51:54.773Z,38.77
2018-01-23T18:54:22.322Z,40.30
2018-01-23T18:56:49.981Z,44.77
2018-01-23T18:59:17.516Z,48.30
2018-01-23T19:01:45.880Z,42.97
2018-01-23T19:04:13.729Z,47.10
2018-01-23T19:06:41.503Z,33.03
2018-01-23T19:09:09.102Z,46.57
2018-01-23T19:11:36.650Z,40.50
2018-01-23T19:14:04.222Z,40.20
2018-01-23T19:16:31.883Z,42.63
2018-01-23T19:18:59.440Z,36.80
2018-01-23T19:21:27.163Z,39.90
2018-01-23T19:23:54.793Z,34.27
2018-01-23T19:26:22.448Z,24.50
2018-01-23T19:28:50.123Z,34.80
2018-01-23T19:31:18.006Z,30.40
2018-01-23T19:33:45.701Z,37.57
2018-01-23T19:36:13.386Z,26.30
2018-01-23T19:38:41.178Z,27.63
2018-01-23T19:41:09.242Z,29.23
2018-01-23T19:43:37.827Z,29.70
2018-01-23T19:46:05.531Z,29.70
2018-01-23T19:48:33.184Z,29.57
2018-01-23T19:51:00.850Z,33.57
2018-01-23T19:53:29.228Z,40.97
2018-01-23T19:55:56.797Z,30.33
2018-01-23T19:58:24.569Z,29.33
2018-01-23T20:00:52.252Z,33.40
2018-01-23T20:03:19.856Z,29.97
2018-01-23T20:05:47.488Z,27.73
2018-01-23T20:08:15.086Z,22.20
2018-01-23T20:10:42.680Z,32.17
2018-01-23T20:13:10.337Z,41.17
2018-01-23T20:15:37.929Z,30.57
2018-01-23T20:18:07.240Z,36.63
2018-01-23T20:20:34.871Z,31.43
2018-01-23T20:23:03.236Z,27.43
2018-01-23T20:25:31.800Z,32.43
2018-01-23T20:27:59.371Z,28.40
2018-01-23T20:30:27.045Z,28.13
2018-01-23T20:32:54.590Z,29.50
2018-01-23T20:35:22.133Z,30.77
2018-01-23T20:37:49.681Z,20.50
2018-01-23T20:40:17.305Z,25.20
2018-01-23T20:42:44.890Z,26.10
2018-01-23T20:45:12.504Z,24.67
2018-01-23T20:47:40.236Z,22.80
2018-01-23T20:50:08.505Z,26.03
2018-01-23T20:52:37.543Z,23.63
2018-01-23T20:55:05.165Z,26.90
2018-01-23T20:57:33.680Z,20.70
2018-01-23T21:00:01.310Z,29.57
2018-01-23T21:02:29.000Z,20.90
2018-01-23T21:04:57.311Z,24.07
2018-01-23T21:07:24.873Z,20.90
2018-01-23T21:09:52.534Z,26.70
2018-01-23T21:12:20.899Z,19.37
2018-01-23T21:14:48.586Z,22.27
2018-01-23T21:17:16.853Z,21.63
2018-01-23T21:19:44.476Z,23.73
2018-01-23T21:22:12.128Z,22.23
2018-01-23T21:24:40.452Z,23.00
2018-01-23T21:27:08.832Z,20.03
2018-01-23T21:29:36.518Z,19.83
2018-01-23T21:32:04.082Z,16.87
2018-01-23T21:34:31.762Z,22.10
2018-01-23T21:36:59.392Z,24.87
2018-01-23T21:39:27.795Z,23.83
2018-01-23T21:41:56.065Z,19.63
2018-01-23T21:44:24.388Z,27.77
2018-01-23T21:46:51.948Z,18.07
2018-01-23T21:49:19.528Z,19.93
2018-01-23T21:51:47.103Z,18.87
2018-01-23T21:54:14.650Z,37.03
2018-01-23T21:56:42.994Z,19.13
2018-01-23T21:59:10.657Z,23.37
2018-01-23T22:01:38.223Z,19.13
2018-01-23T22:04:05.882Z,16.90
2018-01-23T22:06:33.396Z,15.70
2018-01-23T22:09:00.956Z,18.97
2018-01-23T22:11:28.605Z,16.43
2018-01-23T22:13:56.401Z,16.47
2018-01-23T22:16:24.720Z,15.43
2018-01-23T22:18:52.774Z,16.37
2018-01-23T22:21:20.299Z,12.77
2018-01-23T22:23:47.893Z,13.63
2018-01-23T22:26:15.457Z,19.40
2018-01-23T22:28:43.489Z,17.37
2018-01-23T22:31:11.137Z,15.47
2018-01-23T22:33:38.738Z,15.30
2018-01-23T22:36:07.255Z,19.27
2018-01-23T22:38:35.677Z,15.30
2018-01-23T22:41:03.214Z,15.97
2018-01-23T22:43:30.733Z,12.10
2018-01-23T22:45:58.270Z,17.83
2018-01-23T22:48:25.854Z,17.83
2018-01-23T22:50:53.431Z,13.30
2018-01-23T22:53:20.954Z,12.63
2018-01-23T22:55:48.480Z,8.87
2018-01-23T22:58:16.226Z,15.60
2018-01-23T23:00:44.532Z,15.83
2018-01-23T23:03:12.049Z,15.90
2018-01-23T23:05:39.572Z,17.93
2018-01-23T23:08:07.154Z,11.70
2018-01-23T23:10:34.719Z,16.93
2018-01-23T23:13:02.252Z,11.97
2018-01-23T23:15:30.437Z,12.10
2018-01-23T23:17:58.222Z,15.63
2018-01-23T23:20:26.536Z,20.27
2018-01-23T23:22:54.897Z,27.37
2018-01-23T23:25:22.405Z,15.73
2018-01-23T23:27:49.961Z,13.40
2018-01-23T23:30:18.279Z,12.20
2018-01-23T23:32:45.794Z,16.33
2018-01-23T23:35:13.350Z,10.70
2018-01-23T23:37:41.001Z,16.77
2018-01-23T23:40:08.562Z,10.93
2018-01-23T23:42:36.279Z,19.60
2018-01-23T23:45:03.800Z,15.27
2018-01-23T23:47:31.320Z,14.33
2018-01-23T23:49:58.944Z,15.57
2018-01-23T23:52:26.500Z,11.53
2018-01-23T23:54:54.768Z,12.90
2018-01-23T23:57:23.753Z,17.87
2018-01-23T23:59:51.376Z,13.93
